createdAt,value
2024-04-30T00:00:20.231Z,102266.45
2024-04-30T00:03:08.309Z,102263.98
2024-04-30T00:05:36.250Z,102263.96
2024-04-30T00:08:04.454Z,102263.97
2024-04-30T00:10:32.395Z,102261.67
2024-04-30T00:13:00.468Z,102260.61
2024-04-30T00:15:28.478Z,102264.83
2024-04-30T00:17:56.406Z,102266.92
2024-04-30T00:20:24.341Z,102266.71
2024-04-30T00:22:52.356Z,102272.84
2024-04-30T00:25:20.328Z,102267.92
2024-04-30T00:27:50.030Z,102272.81
2024-04-30T00:30:17.931Z,102267.90
2024-04-30T00:32:45.808Z,102266.31
2024-04-30T00:35:13.825Z,102264.20
2024-04-30T00:37:42.181Z,102268.73
2024-04-30T00:40:10.401Z,102268.02
2024-04-30T00:42:38.349Z,102270.81
2024-04-30T00:45:06.551Z,102266.77
2024-04-30T00:47:34.583Z,102271.13
2024-04-30T00:50:03.456Z,102269.54
2024-04-30T00:52:32.826Z,102266.91
2024-04-30T00:55:01.110Z,102268.13
2024-04-30T00:57:29.849Z,102273.17
2024-04-30T00:59:57.757Z,102279.98
2024-04-30T01:02:27.185Z,102279.44
2024-04-30T01:05:01.157Z,102281.52
2024-04-30T01:07:29.113Z,102279.75
2024-04-30T01:09:57.250Z,102282.52
2024-04-30T01:12:25.263Z,102285.65
2024-04-30T01:14:53.131Z,102286.15
2024-04-30T01:17:21.066Z,102287.54
2024-04-30T01:19:48.977Z,102285.40
2024-04-30T01:22:16.898Z,102284.84
2024-04-30T01:24:44.818Z,102286.23
2024-04-30T01:27:12.705Z,102287.79
2024-04-30T01:29:40.544Z,102285.33
2024-04-30T01:32:09.650Z,102285.81
2024-04-30T01:34:39.048Z,102287.52
2024-04-30T01:37:07.634Z,102290.80
2024-04-30T01:39:35.509Z,102290.94
2024-04-30T01:42:03.471Z,102295.61
2024-04-30T01:44:31.324Z,102296.89
2024-04-30T01:46:59.142Z,102301.36
2024-04-30T01:49:27.100Z,102300.09
2024-04-30T01:51:54.935Z,102301.75
2024-04-30T01:54:22.839Z,102295.02
2024-04-30T01:56:50.732Z,102292.52
2024-04-30T01:59:18.575Z,102292.46
2024-04-30T02:01:46.551Z,102293.99
2024-04-30T02:04:14.422Z,102291.89
2024-04-30T02:06:42.623Z,102289.75
2024-04-30T02:09:10.528Z,102288.70
2024-04-30T02:11:38.446Z,102289.75
2024-04-30T02:14:06.272Z,102292.38
2024-04-30T02:16:34.228Z,102293.59
2024-04-30T02:19:02.114Z,102290.42
2024-04-30T02:21:30.003Z,102290.59
2024-04-30T02:23:57.843Z,102284.27
2024-04-30T02:26:26.117Z,102282.84
2024-04-30T02:28:53.968Z,102282.14
2024-04-30T02:31:40.455Z,102280.88
2024-04-30T02:34:19.760Z,102280.50
2024-04-30T02:36:47.684Z,102283.80
2024-04-30T02:39:15.591Z,102281.86
2024-04-30T02:41:43.484Z,102282.19
2024-04-30T02:44:11.380Z,102281.66
2024-04-30T02:46:39.351Z,102284.80
2024-04-30T02:49:07.429Z,102280.23
2024-04-30T02:51:35.312Z,102280.03
2024-04-30T02:54:03.193Z,102278.96
2024-04-30T02:56:31.121Z,102284.22
2024-04-30T02:58:58.958Z,102282.63
2024-04-30T03:01:26.931Z,102279.29
2024-04-30T03:03:54.866Z,102281.02
2024-04-30T03:06:22.742Z,102280.67
2024-04-30T03:08:50.596Z,102280.69
2024-04-30T03:11:18.633Z,102286.45
2024-04-30T03:13:46.789Z,102288.55
2024-04-30T03:16:14.733Z,102291.17
2024-04-30T03:18:42.742Z,102294.15
2024-04-30T03:21:11.729Z,102292.58
2024-04-30T03:23:39.993Z,102287.33
2024-04-30T03:26:08.013Z,102286.80
2024-04-30T03:28:36.018Z,102290.98
2024-04-30T03:31:06.409Z,102292.53
2024-04-30T03:33:37.302Z,102296.89
2024-04-30T03:36:05.918Z,102302.82
2024-04-30T03:38:39.309Z,102302.29
2024-04-30T03:41:14.993Z,102301.94
2024-04-30T03:43:44.342Z,102302.13
2024-04-30T03:46:16.115Z,102306.33
2024-04-30T03:48:43.970Z,102307.21
2024-04-30T03:51:11.879Z,102308.10
2024-04-30T03:53:40.459Z,102312.98
2024-04-30T03:56:08.361Z,102317.38
2024-04-30T03:58:36.394Z,102321.59
2024-04-30T04:01:05.082Z,102321.79
2024-04-30T04:03:33.097Z,102322.86
2024-04-30T04:06:01.006Z,102322.69
2024-04-30T04:08:28.895Z,102318.32
2024-04-30T04:11:15.357Z,102317.96
2024-04-30T04:14:01.890Z,102318.31
2024-04-30T04:16:29.812Z,102321.52
2024-04-30T04:18:57.674Z,102325.90
2024-04-30T04:21:25.509Z,102323.31
2024-04-30T04:23:53.343Z,102324.73
2024-04-30T04:26:21.251Z,102324.59
2024-04-30T04:28:49.209Z,102322.02
2024-04-30T04:31:17.210Z,102326.98
2024-04-30T04:33:45.081Z,102326.13
2024-04-30T04:36:14.131Z,102326.70
2024-04-30T04:38:43.025Z,102327.77
2024-04-30T04:41:10.956Z,102325.54
2024-04-30T04:43:39.027Z,102333.45
2024-04-30T04:46:06.969Z,102339.64
2024-04-30T04:48:34.901Z,102340.92
2024-04-30T04:51:03.024Z,102338.52
2024-04-30T04:53:30.867Z,102340.48
2024-04-30T04:55:58.753Z,102337.23
2024-04-30T04:58:26.652Z,102341.67
2024-04-30T05:00:56.377Z,102342.94
2024-04-30T05:03:24.336Z,102340.75
2024-04-30T05:05:52.276Z,102336.97
2024-04-30T05:08:20.201Z,102337.39
2024-04-30T05:10:48.123Z,102346.39
2024-04-30T05:13:16.149Z,102341.17
2024-04-30T05:15:44.095Z,102348.57
2024-04-30T05:18:11.986Z,102347.21
2024-04-30T05:20:39.934Z,102350.77
2024-04-30T05:23:08.356Z,102345.92
2024-04-30T05:25:37.000Z,102348.09
2024-04-30T05:28:06.321Z,102351.99
2024-04-30T05:30:34.329Z,102354.66
2024-04-30T05:33:03.746Z,102354.89
2024-04-30T05:35:31.798Z,102354.92
2024-04-30T05:37:59.790Z,102364.60
2024-04-30T05:40:27.801Z,102366.08
2024-04-30T05:42:55.779Z,102372.27
2024-04-30T05:45:23.668Z,102368.81
2024-04-30T05:47:51.534Z,102376.04
2024-04-30T05:50:21.988Z,102374.51
2024-04-30T05:52:49.800Z,102375.27
2024-04-30T05:55:17.811Z,102375.99
2024-04-30T05:57:45.707Z,102381.30
2024-04-30T06:00:13.871Z,102382.39
2024-04-30T06:02:41.781Z,102385.06
2024-04-30T06:05:09.867Z,102383.14
2024-04-30T06:07:38.018Z,102384.55
2024-04-30T06:10:06.681Z,102385.11
2024-04-30T06:12:34.576Z,102387.60
2024-04-30T06:15:03.593Z,102385.15
2024-04-30T06:17:31.550Z,102388.65
2024-04-30T06:19:59.493Z,102389.89
2024-04-30T06:22:27.434Z,102393.23
2024-04-30T06:24:55.353Z,102396.73
2024-04-30T06:27:23.302Z,102399.39
2024-04-30T06:29:51.177Z,102404.30
2024-04-30T06:32:19.054Z,102406.59
2024-04-30T06:34:47.174Z,102403.06
2024-04-30T06:37:15.571Z,102406.20
2024-04-30T06:39:44.283Z,102411.80
2024-04-30T06:42:12.529Z,102411.42
2024-04-30T06:44:40.343Z,102416.49
2024-04-30T06:47:08.278Z,102419.58
2024-04-30T06:49:36.196Z,102420.20
2024-04-30T06:52:04.954Z,102422.98
2024-04-30T06:54:32.956Z,102424.58
2024-04-30T06:57:00.803Z,102430.48
2024-04-30T06:59:28.663Z,102431.67
2024-04-30T07:01:56.546Z,102432.34
2024-04-30T07:04:24.706Z,102436.90
2024-04-30T07:06:53.036Z,102442.30
2024-04-30T07:09:20.885Z,102437.97
2024-04-30T07:11:48.908Z,102436.60
2024-04-30T07:14:16.757Z,102433.40
2024-04-30T07:16:52.077Z,102429.90
2024-04-30T07:19:24.892Z,102439.11
2024-04-30T07:21:52.853Z,102432.66
2024-04-30T07:24:20.810Z,102437.85
2024-04-30T07:26:48.695Z,102436.67
2024-04-30T07:29:16.504Z,102434.40
2024-04-30T07:31:44.491Z,102434.12
2024-04-30T07:34:12.612Z,102435.16
2024-04-30T07:36:40.609Z,102435.29
2024-04-30T07:39:08.508Z,102433.99
2024-04-30T07:41:38.929Z,102435.19
2024-04-30T07:44:06.732Z,102434.91
2024-04-30T07:46:34.662Z,102433.30
2024-04-30T07:49:03.024Z,102431.93
2024-04-30T07:51:30.828Z,102433.41
2024-04-30T07:53:58.626Z,102433.23
2024-04-30T07:56:26.530Z,102434.90
2024-04-30T07:58:54.364Z,102435.09
2024-04-30T08:01:22.549Z,102431.65
2024-04-30T08:03:50.488Z,102433.23
2024-04-30T08:06:20.799Z,102434.89
2024-04-30T08:08:49.310Z,102432.09
2024-04-30T08:11:17.224Z,102434.48
2024-04-30T08:13:45.609Z,102436.30
2024-04-30T08:16:14.617Z,102437.10
2024-04-30T08:18:43.829Z,102436.92
2024-04-30T08:21:11.924Z,102434.83
2024-04-30T08:23:39.945Z,102437.53
2024-04-30T08:26:08.130Z,102436.34
2024-04-30T08:28:36.220Z,102435.08
2024-04-30T08:31:04.935Z,102430.05
2024-04-30T08:33:33.354Z,102437.11
2024-04-30T08:36:01.330Z,102437.77
2024-04-30T08:38:29.264Z,102432.96
2024-04-30T08:40:58.447Z,102428.63
2024-04-30T08:43:29.448Z,102431.40
2024-04-30T08:45:58.747Z,102426.89
2024-04-30T08:48:27.798Z,102428.27
2024-04-30T08:50:57.149Z,102424.29
2024-04-30T08:53:25.134Z,102429.36
2024-04-30T08:55:54.598Z,102424.37
2024-04-30T08:58:22.810Z,102425.79
2024-04-30T09:00:53.641Z,102422.09
2024-04-30T09:03:26.472Z,102418.39
2024-04-30T09:05:55.730Z,102413.70
2024-04-30T09:08:25.203Z,102416.66
2024-04-30T09:10:53.207Z,102421.39
2024-04-30T09:13:34.039Z,102422.21
2024-04-30T09:16:02.333Z,102419.13
2024-04-30T09:18:30.309Z,102413.52
2024-04-30T09:21:08.000Z,102412.77
2024-04-30T09:23:44.482Z,102403.69
2024-04-30T09:26:12.604Z,102402.45
2024-04-30T09:28:41.673Z,102400.36
2024-04-30T09:31:11.836Z,102390.92
2024-04-30T09:33:40.206Z,102388.09
2024-04-30T09:36:10.580Z,102392.30
2024-04-30T09:38:40.287Z,102390.81
2024-04-30T09:41:12.492Z,102389.86
2024-04-30T09:43:41.339Z,102391.09
2024-04-30T09:46:09.528Z,102385.67
2024-04-30T09:48:39.874Z,102380.38
2024-04-30T09:51:13.734Z,102372.39
2024-04-30T09:53:42.392Z,102368.09
2024-04-30T09:56:11.525Z,102363.17
2024-04-30T09:58:40.235Z,102366.10
2024-04-30T10:01:12.216Z,102368.58
2024-04-30T10:03:42.821Z,102360.83
2024-04-30T10:06:14.009Z,102355.98
2024-04-30T10:08:45.321Z,102356.45
2024-04-30T10:11:13.641Z,102355.35
2024-04-30T10:13:51.015Z,102353.60
2024-04-30T10:16:20.548Z,102353.91
2024-04-30T10:18:50.366Z,102350.05
2024-04-30T10:21:18.263Z,102344.10
2024-04-30T10:23:46.950Z,102340.23
2024-04-30T10:26:15.836Z,102350.16
2024-04-30T10:28:44.055Z,102341.86
2024-04-30T10:31:15.283Z,102338.39
2024-04-30T10:33:43.455Z,102336.19
2024-04-30T10:36:15.624Z,102335.52
2024-04-30T10:38:43.551Z,102332.41
2024-04-30T10:41:11.613Z,102333.92
2024-04-30T10:43:40.368Z,102331.29
2024-04-30T10:46:14.366Z,102324.88
2024-04-30T10:48:56.090Z,102325.60
2024-04-30T10:51:25.624Z,102327.86
2024-04-30T10:53:58.388Z,102323.56
2024-04-30T10:56:26.395Z,102323.23
2024-04-30T10:58:55.218Z,102328.23
2024-04-30T11:01:24.799Z,102324.74
2024-04-30T11:04:04.984Z,102327.83
2024-04-30T11:06:45.864Z,102325.80
2024-04-30T11:09:15.802Z,102333.48
2024-04-30T11:11:48.725Z,102329.37
2024-04-30T11:14:17.869Z,102327.85
2024-04-30T11:16:50.296Z,102320.25
2024-04-30T11:19:21.494Z,102320.98
2024-04-30T11:21:51.608Z,102316.02
2024-04-30T11:24:19.611Z,102315.39
2024-04-30T11:26:50.552Z,102310.17
2024-04-30T11:31:49.764Z,102306.33
2024-04-30T11:34:17.879Z,102313.20
2024-04-30T11:36:47.246Z,102312.75
2024-04-30T11:39:15.367Z,102314.14
2024-04-30T11:41:49.094Z,102312.51
2024-04-30T11:44:25.024Z,102309.79
2024-04-30T11:46:52.872Z,102309.86
2024-04-30T11:49:20.907Z,102308.53
2024-04-30T11:51:48.786Z,102306.95
2024-04-30T11:54:16.637Z,102305.65
2024-04-30T11:56:47.654Z,102303.16
2024-04-30T11:59:15.468Z,102297.35
2024-04-30T12:01:43.323Z,102294.36
2024-04-30T12:04:11.478Z,102291.25
2024-04-30T12:06:40.037Z,102289.84
2024-04-30T12:09:07.857Z,102285.29
2024-04-30T12:11:39.300Z,102275.29
2024-04-30T12:14:07.289Z,102277.35
2024-04-30T12:16:35.211Z,102274.58
2024-04-30T12:19:05.008Z,102277.52
2024-04-30T12:21:32.895Z,102277.54
2024-04-30T12:24:00.711Z,102272.64
2024-04-30T12:26:28.547Z,102279.40
2024-04-30T12:28:56.360Z,102275.98
2024-04-30T12:31:24.242Z,102270.68
2024-04-30T12:33:52.077Z,102263.70
2024-04-30T12:36:20.062Z,102262.11
2024-04-30T12:38:47.892Z,102264.06
2024-04-30T12:41:15.740Z,102262.38
2024-04-30T12:43:43.645Z,102259.98
2024-04-30T12:46:11.557Z,102261.90
2024-04-30T12:48:39.515Z,102261.38
2024-04-30T12:51:07.445Z,102256.74
2024-04-30T12:53:35.258Z,102251.61
2024-04-30T12:56:03.168Z,102248.92
2024-04-30T12:58:31.010Z,102245.02
2024-04-30T13:00:58.980Z,102243.04
2024-04-30T13:03:26.998Z,102246.20
2024-04-30T13:05:54.957Z,102245.30
2024-04-30T13:08:22.932Z,102241.42
2024-04-30T13:10:51.005Z,102240.83
2024-04-30T13:13:19.057Z,102242.29
2024-04-30T13:15:46.904Z,102244.68
2024-04-30T13:18:14.769Z,102238.93
2024-04-30T13:20:42.616Z,102241.17
2024-04-30T13:23:10.475Z,102234.23
2024-04-30T13:25:38.433Z,102233.61
2024-04-30T13:28:06.738Z,102228.63
2024-04-30T13:30:34.749Z,102225.17
2024-04-30T13:33:06.785Z,102224.67
2024-04-30T13:35:34.844Z,102224.60
2024-04-30T13:38:02.758Z,102220.20
2024-04-30T13:40:31.921Z,102217.90
2024-04-30T13:43:00.132Z,102215.61
2024-04-30T13:45:28.210Z,102215.98
2024-04-30T13:47:56.167Z,102213.74
2024-04-30T13:50:24.455Z,102211.26
2024-04-30T13:52:52.339Z,102206.15
2024-04-30T13:55:20.261Z,102207.64
2024-04-30T13:57:48.197Z,102208.20
2024-04-30T14:00:16.310Z,102204.84
2024-04-30T14:02:47.513Z,102199.28
2024-04-30T14:05:15.524Z,102200.24
2024-04-30T14:07:46.436Z,102187.91
2024-04-30T14:10:14.776Z,102195.98
2024-04-30T14:12:48.986Z,102197.21
2024-04-30T14:15:17.281Z,102189.72
2024-04-30T14:17:45.307Z,102194.98
2024-04-30T14:20:13.263Z,102196.40
2024-04-30T14:22:41.859Z,102195.53
2024-04-30T14:25:10.212Z,102196.91
2024-04-30T14:27:38.141Z,102190.82
2024-04-30T14:30:06.872Z,102184.71
2024-04-30T14:32:34.855Z,102180.35
2024-04-30T14:35:02.941Z,102184.94
2024-04-30T14:37:31.140Z,102186.61
2024-04-30T14:39:59.029Z,102188.73
2024-04-30T14:42:26.929Z,102194.65
2024-04-30T14:44:55.367Z,102190.91
2024-04-30T14:47:23.528Z,102186.99
2024-04-30T14:49:51.692Z,102183.17
2024-04-30T14:52:19.714Z,102185.02
2024-04-30T14:54:48.043Z,102183.98
2024-04-30T14:57:15.932Z,102189.22
2024-04-30T14:59:43.815Z,102185.40
2024-04-30T15:02:11.756Z,102187.24
2024-04-30T15:04:39.687Z,102185.45
2024-04-30T15:07:07.561Z,102184.50
2024-04-30T15:09:35.952Z,102186.34
2024-04-30T15:12:04.127Z,102186.20
2024-04-30T15:14:32.081Z,102189.63
2024-04-30T15:17:00.055Z,102187.41
2024-04-30T15:19:28.124Z,102191.70
2024-04-30T15:21:57.187Z,102192.13
2024-04-30T15:24:25.057Z,102186.31
2024-04-30T15:26:52.940Z,102185.23
2024-04-30T15:29:20.918Z,102188.84
2024-04-30T15:31:49.007Z,102181.89
2024-04-30T15:34:17.125Z,102183.78
2024-04-30T15:36:45.045Z,102187.40
2024-04-30T15:39:19.523Z,102185.60
2024-04-30T15:41:47.425Z,102188.50
2024-04-30T15:44:15.265Z,102187.81
2024-04-30T15:46:43.419Z,102182.08
2024-04-30T15:49:14.935Z,102180.98
2024-04-30T15:51:42.896Z,102175.83
2024-04-30T15:54:14.324Z,102175.80
2024-04-30T15:56:50.404Z,102176.30
2024-04-30T15:59:22.507Z,102172.58
2024-04-30T16:01:51.089Z,102174.40
2024-04-30T16:04:19.365Z,102176.05
2024-04-30T16:06:47.436Z,102173.66
2024-04-30T16:09:15.296Z,102173.63
2024-04-30T16:11:43.518Z,102167.23
2024-04-30T16:14:11.359Z,102171.13
2024-04-30T16:16:40.344Z,102173.06
2024-04-30T16:19:12.867Z,102169.11
2024-04-30T16:21:40.857Z,102171.42
2024-04-30T16:24:13.093Z,102168.48
2024-04-30T16:26:41.760Z,102161.96
2024-04-30T16:29:09.998Z,102165.18
2024-04-30T16:31:38.405Z,102166.34
2024-04-30T16:34:06.589Z,102163.55
2024-04-30T16:36:34.579Z,102166.24
2024-04-30T16:39:02.440Z,102168.20
2024-04-30T16:41:30.374Z,102167.05
2024-04-30T16:43:58.223Z,102166.48
2024-04-30T16:46:26.117Z,102168.95
2024-04-30T16:48:57.354Z,102169.20
2024-04-30T16:51:25.511Z,102166.20
2024-04-30T16:53:53.687Z,102168.44
2024-04-30T16:56:21.576Z,102167.70
2024-04-30T16:58:51.039Z,102166.27
2024-04-30T17:01:19.021Z,102161.10
2024-04-30T17:03:49.541Z,102162.63
2024-04-30T17:06:19.382Z,102164.35
2024-04-30T17:08:47.421Z,102160.08
2024-04-30T17:11:15.460Z,102157.85
2024-04-30T17:13:44.007Z,102157.22
2024-04-30T17:16:23.436Z,102158.35
2024-04-30T17:18:51.993Z,102154.40
2024-04-30T17:21:22.592Z,102152.86
2024-04-30T17:23:50.825Z,102149.60
2024-04-30T17:26:26.405Z,102149.59
2024-04-30T17:28:55.660Z,102148.96
2024-04-30T17:31:24.978Z,102146.70
2024-04-30T17:33:56.785Z,102151.67
2024-04-30T17:36:25.376Z,102148.00
2024-04-30T17:38:53.707Z,102154.44
2024-04-30T17:41:27.293Z,102154.16
2024-04-30T17:43:55.557Z,102155.55
2024-04-30T17:46:26.783Z,102156.58
2024-04-30T17:48:56.383Z,102158.38
2024-04-30T17:51:28.332Z,102159.23
2024-04-30T17:53:56.631Z,102162.66
2024-04-30T17:56:24.507Z,102159.02
2024-04-30T17:58:52.447Z,102157.91
2024-04-30T18:01:20.436Z,102161.65
2024-04-30T18:03:55.762Z,102163.45
2024-04-30T18:06:24.829Z,102163.16
2024-04-30T18:08:57.653Z,102164.44
2024-04-30T18:11:26.755Z,102169.48
2024-04-30T18:13:56.426Z,102179.05
2024-04-30T18:16:26.133Z,102182.19
2024-04-30T18:18:55.571Z,102185.52
2024-04-30T18:21:27.658Z,102185.62
2024-04-30T18:23:56.354Z,102182.70
2024-04-30T18:26:24.213Z,102186.77
2024-04-30T18:28:56.026Z,102183.77
2024-04-30T18:31:25.733Z,102180.99
2024-04-30T18:33:55.715Z,102178.55
2024-04-30T18:36:25.984Z,102180.52
2024-04-30T18:38:55.016Z,102177.94
2024-04-30T18:41:29.806Z,102179.74
2024-04-30T18:43:59.787Z,102184.54
2024-04-30T18:46:28.199Z,102186.31
2024-04-30T18:48:56.655Z,102186.85
2024-04-30T18:51:25.580Z,102186.70
2024-04-30T18:53:54.138Z,102186.74
2024-04-30T18:56:22.289Z,102185.90
2024-04-30T18:58:50.209Z,102183.82
2024-04-30T19:01:18.517Z,102182.24
2024-04-30T19:03:49.679Z,102181.71
2024-04-30T19:06:21.305Z,102183.67
2024-04-30T19:08:49.495Z,102185.98
2024-04-30T19:11:17.420Z,102185.67
2024-04-30T19:13:45.639Z,102181.52
2024-04-30T19:16:13.674Z,102180.83
2024-04-30T19:18:41.666Z,102177.68
2024-04-30T19:21:09.768Z,102177.70
2024-04-30T19:23:37.734Z,102174.38
2024-04-30T19:26:13.276Z,102170.17
2024-04-30T19:28:41.184Z,102169.66
2024-04-30T19:31:20.844Z,102168.80
2024-04-30T19:33:49.615Z,102166.89
2024-04-30T19:36:19.489Z,102163.39
2024-04-30T19:38:47.883Z,102163.56
2024-04-30T19:41:17.016Z,102163.77
2024-04-30T19:43:44.875Z,102162.38
2024-04-30T19:46:21.892Z,102162.39
2024-04-30T19:48:52.558Z,102164.14
2024-04-30T19:51:22.210Z,102161.16
2024-04-30T19:53:53.083Z,102162.59
2024-04-30T19:56:22.236Z,102162.23
2024-04-30T19:58:57.106Z,102159.10
2024-04-30T20:01:28.858Z,102158.58
2024-04-30T20:03:58.502Z,102156.13
2024-04-30T20:06:27.278Z,102153.49
2024-04-30T20:08:55.287Z,102155.60
2024-04-30T20:11:25.286Z,102154.17
2024-04-30T20:13:54.622Z,102156.98
2024-04-30T20:16:26.903Z,102151.21
2024-04-30T20:18:55.312Z,102150.69
2024-04-30T20:21:25.500Z,102149.11
2024-04-30T20:23:54.415Z,102144.73
2024-04-30T20:26:22.366Z,102141.23
2024-04-30T20:28:50.233Z,102139.30
2024-04-30T20:31:18.144Z,102137.56
2024-04-30T20:33:46.487Z,102134.05
2024-04-30T20:36:18.878Z,102134.23
2024-04-30T20:38:47.114Z,102134.92
2024-04-30T20:41:15.176Z,102132.48
2024-04-30T20:43:43.085Z,102131.78
2024-04-30T20:46:10.930Z,102129.68
2024-04-30T20:48:39.018Z,102133.52
2024-04-30T20:51:07.010Z,102128.98
2024-04-30T20:53:34.844Z,102127.40
2024-04-30T20:56:05.764Z,102125.83
2024-04-30T20:58:33.694Z,102120.21
2024-04-30T21:01:01.679Z,102122.33
2024-04-30T21:03:29.766Z,102119.50
2024-04-30T21:05:57.780Z,102115.64
2024-04-30T21:08:25.644Z,102115.65
2024-04-30T21:10:53.767Z,102116.86
2024-04-30T21:13:21.908Z,102116.34
2024-04-30T21:15:49.821Z,102110.91
2024-04-30T21:18:17.788Z,102111.25
2024-04-30T21:20:45.710Z,102106.00
2024-04-30T21:23:13.613Z,102103.52
2024-04-30T21:25:41.531Z,102102.27
2024-04-30T21:28:09.368Z,102101.80
2024-04-30T21:30:37.259Z,102100.73
2024-04-30T21:33:05.370Z,102094.41
2024-04-30T21:35:33.835Z,102093.55
2024-04-30T21:38:01.741Z,102091.27
2024-04-30T21:40:29.651Z,102089.33
2024-04-30T21:42:57.598Z,102091.63
2024-04-30T21:45:25.650Z,102091.61
2024-04-30T21:47:53.583Z,102088.25
2024-04-30T21:50:21.678Z,102082.98
2024-04-30T21:52:49.535Z,102082.30
2024-04-30T21:55:17.436Z,102078.61
2024-04-30T21:57:45.347Z,102079.13
2024-04-30T22:00:14.618Z,102078.06
2024-04-30T22:02:42.567Z,102078.58
2024-04-30T22:05:10.586Z,102075.27
2024-04-30T22:07:38.438Z,102074.02
2024-04-30T22:10:06.739Z,102073.50
2024-04-30T22:12:34.831Z,102071.04
2024-04-30T22:15:02.752Z,102071.38
2024-04-30T22:17:30.722Z,102068.91
2024-04-30T22:19:58.826Z,102067.67
2024-04-30T22:22:26.721Z,102062.58
2024-04-30T22:24:54.829Z,102059.59
2024-04-30T22:27:22.954Z,102053.11
2024-04-30T22:29:57.577Z,102054.31
2024-04-30T22:32:25.995Z,102048.17
2024-04-30T22:34:53.952Z,102045.52
2024-04-30T22:37:21.764Z,102045.69
2024-04-30T22:39:49.663Z,102042.17
2024-04-30T22:42:17.579Z,102042.87
2024-04-30T22:44:45.406Z,102043.75
2024-04-30T22:47:14.288Z,102042.84
2024-04-30T22:49:42.999Z,102041.09
2024-04-30T22:52:11.223Z,102036.18
2024-04-30T22:54:39.132Z,102035.30
2024-04-30T22:57:07.235Z,102034.60
2024-04-30T22:59:35.186Z,102034.41
2024-04-30T23:02:03.059Z,102034.41
2024-04-30T23:04:30.964Z,102031.94
2024-04-30T23:06:58.947Z,102025.98
2024-04-30T23:09:29.262Z,102030.52
2024-04-30T23:11:58.669Z,102029.59
2024-04-30T23:14:26.636Z,102028.34
2024-04-30T23:16:54.681Z,102025.53
2024-04-30T23:19:22.634Z,102032.88
2024-04-30T23:21:50.704Z,102032.70
2024-04-30T23:24:18.811Z,102031.98
2024-04-30T23:26:46.619Z,102035.11
2024-04-30T23:29:14.488Z,102031.61
2024-04-30T23:31:42.413Z,102026.35
2024-04-30T23:34:10.286Z,102028.62
2024-04-30T23:36:38.206Z,102027.73
2024-04-30T23:39:06.062Z,102025.96
2024-04-30T23:41:33.929Z,102030.67
2024-04-30T23:44:01.768Z,102030.80
2024-04-30T23:46:29.682Z,102029.02
2024-04-30T23:48:57.703Z,102025.86
2024-04-30T23:51:25.673Z,102027.58
2024-04-30T23:53:53.632Z,102023.34
2024-04-30T23:56:21.488Z,102026.66
2024-04-30T23:58:49.630Z,102022.23
